Flight Track Log - Related Links

Times and Time Zones

All times are in EDT time to prevent confusion due to time zone crossing. See the N27XP flight status page for this flight to view local times or setup timezone preferences in your user account.

Time Position Orientation Groundspeed Altitude Reporting Facility
EDT Latitude Longitude Course Direction KTS km/h meters Rate Location/Type
Mon 07:55:54 41.3169 -95.9086 357° North 168 311 518  Level Minneapolis Center
Mon 07:56:35 41.3475 -95.9106 357° North 185 343 975 610 Climbing Minneapolis Center
Mon 07:57:36 41.3667 -95.8444 69° East 213 394 1,554 570 Climbing Minneapolis Center
Mon 07:58:37 41.3478 -95.7514 105° East 249 462 2,134 614 Climbing Minneapolis Center
Mon 07:59:38 41.3275 -95.6503 105° East 274 507 2,804 570 Climbing Minneapolis Center
Mon 08:00:39 41.3039 -95.5381 106° East 305 565 3,292 480 Climbing Minneapolis Center
Mon 08:01:40 41.2786 -95.4147 105° East 334 618 3,780 480 Climbing Minneapolis Center
Mon 08:02:41 41.2522 -95.2894 106° East 349 647 4,267 520 Climbing Minneapolis Center
Mon 08:03:43 41.2194 -95.1356 106° East 358 663 4,846 461 Climbing Minneapolis Center
Mon 08:04:44 41.1914 -95.0050 106° East 364 674 5,212 345 Climbing Minneapolis Center
Mon 08:05:45 41.1636 -94.8706 105° East 374 692 5,547 345 Climbing Minneapolis Center
Mon 08:06:46 41.1308 -94.7361 108° East 381 705 5,913 375 Climbing Minneapolis Center
Mon 08:07:47 41.1028 -94.6000 105° East 381 705 6,309 416 Climbing Minneapolis Center
Mon 08:08:49 41.0750 -94.4547 104° East 383 710 6,767 401 Climbing Minneapolis Center
Mon 08:09:50 41.0442 -94.3164 106° East 391 724 7,132 330 Climbing Minneapolis Center
Mon 08:10:51 41.0122 -94.1750 107° East 399 739 7,437 268 Climbing Minneapolis Center
Mon 08:11:53 40.9811 -94.0300 106° East 409 758 7,681 238 Climbing Minneapolis Center
Mon 08:12:54 40.9469 -93.8808 107° East 421 779 7,925 285 Climbing Minneapolis Center
Mon 08:13:55 40.9142 -93.7292 106° East 429 795 8,260 312 Climbing Minneapolis Center
Mon 08:14:57 40.8814 -93.5767 106° East 433 801 8,565 297 Climbing Minneapolis Center
Mon 08:15:58 40.8392 -93.3944 107° East 435 806 8,870 289 Climbing Minneapolis Center
Mon 08:16:13 40.8311 -93.3631 109° East 435 806 8,931 214 Climbing Chicago Center
Mon 08:17:15 40.7972 -93.2072 106° East 442 819 9,144 206 Climbing Chicago Center
Mon 08:18:17 40.7608 -93.0475 107° East 453 838 9,357 219 Climbing Chicago Center
Mon 08:19:20 40.7239 -92.8881 107° East 457 847 9,601 263 Climbing Chicago Center
Mon 08:20:22 40.6789 -92.6958 107° East 457 847 9,906 265 Climbing Chicago Center
Mon 08:21:24 40.6417 -92.5356 107° East 457 847 10,150 192 Climbing Chicago Center
Mon 08:22:26 40.6031 -92.3742 107° East 460 851 10,302 173 Climbing Chicago Center
Mon 08:22:59 40.5794 -92.2744 107° East 465 861 10,424 191 Climbing Kansas City Center
Mon 08:24:02 40.5392 -92.1086 108° East 473 875 10,607 161 Climbing Kansas City Center
Mon 08:24:30 40.5233 -92.0436 108° East 475 880 10,668 142 Climbing Chicago Center
Mon 08:25:32 40.4825 -91.8761 108° East 481 892 10,820 156 Climbing Chicago Center
Mon 08:26:04 40.4569 -91.7747 108° East 483 895 10,912 157 Climbing Kansas City Center
Mon 08:27:05 40.4156 -91.6064 108° East 486 900 11,064 150 Climbing Kansas City Center
Mon 08:28:06 40.3739 -91.4381 108° East 488 904 11,217 105 Climbing Kansas City Center
Mon 08:29:07 40.3342 -91.2753 108° East 491 909 11,278 30 Climbing Kansas City Center
Mon 08:30:07 40.2903 -91.0958 108° East 497 921 11,278  Level Kansas City Center
Mon 08:31:08 40.2375 -90.8925 109° East 506 937 11,278  Level Kansas City Center
Mon 08:31:45 40.2097 -90.7878 109° East 511 946 11,278  Level Chicago Center
Mon 08:32:47 40.1644 -90.6069 108° East 511 946 11,278  Level Chicago Center
Mon 08:33:13 40.1492 -90.5433 107° East 509 943 11,278  Level Kansas City Center
Mon 08:34:13 40.1033 -90.3697 109° East 508 941 11,278  Level Kansas City Center
Mon 08:35:15 40.0581 -90.1964 109° East 508 941 11,278  Level Kansas City Center
Mon 08:36:14 40.0133 -90.0231 109° East 507 938 11,278  Level Kansas City Center
Mon 08:37:15 39.9669 -89.8486 109° East 511 946 11,278  Level Kansas City Center
Mon 08:38:18 39.9214 -89.6767 109° East 509 943 11,278  Level Kansas City Center
Mon 08:39:20 39.8650 -89.4675 109° East 511 946 11,278  Level Kansas City Center
Mon 08:40:21 39.8194 -89.2964 109° East 506 937 11,278  Level Kansas City Center
Mon 08:41:21 39.7717 -89.1242 110° East 506 937 11,278  Level Kansas City Center
Mon 08:42:25 39.7244 -88.9522 110° East 507 938 11,278  Level Kansas City Center
Mon 08:43:25 39.6769 -88.7778 109° East 509 943 11,278  Level Kansas City Center
Mon 08:44:26 39.6283 -88.6042 110° East 512 948 11,278  Level Kansas City Center
Mon 08:45:27 39.5797 -88.4292 110° East 509 943 11,278  Level Kansas City Center
Mon 08:46:31 39.5331 -88.2514 109° East 514 953 11,278  Level Kansas City Center
Mon 08:47:31 39.4744 -88.0428 110° East 512 948 11,278  Level Kansas City Center
Mon 08:47:55 39.4572 -87.9964 116° Southeast 510 945 11,278  Level Indianapolis Center
Mon 08:48:57 39.4083 -87.8247 110° East 511 946 11,278  Level Indianapolis Center
Mon 08:49:59 39.3536 -87.6317 110° East 510 945 11,278  Level Indianapolis Center
Mon 08:51:01 39.3011 -87.4503 110° East 507 938 11,278  Level Indianapolis Center
Mon 08:52:03 39.2511 -87.2800 111° Southeast 510 945 11,278  Level Indianapolis Center
Mon 08:53:04 39.2017 -87.1111 111° Southeast 508 941 11,278  Level Indianapolis Center
Mon 08:54:06 39.1525 -86.9414 110° East 508 941 11,278  Level Indianapolis Center
Mon 08:55:08 39.1031 -86.7750 111° Southeast 505 935 11,278  Level Indianapolis Center
Mon 08:56:10 39.0419 -86.5725 111° Southeast 507 938 11,278  Level Indianapolis Center
Mon 08:57:12 38.9911 -86.4053 111° Southeast 506 937 11,278  Level Indianapolis Center
Mon 08:58:13 38.9414 -86.2381 111° Southeast 506 937 11,278  Level Indianapolis Center
Mon 08:59:15 38.8867 -86.0611 112° Southeast 506 937 11,278  Level Indianapolis Center
Mon 09:00:17 38.8364 -85.8944 111° Southeast 500 925 11,278  Level Indianapolis Center
Mon 09:01:19 38.7886 -85.7400 112° Southeast 504 933 11,278  Level Indianapolis Center
Mon 09:02:21 38.7264 -85.5411 112° Southeast 505 935 11,278  Level Indianapolis Center
Mon 09:03:23 38.6747 -85.3736 112° Southeast 508 941 11,278  Level Indianapolis Center
Mon 09:04:25 38.6214 -85.2025 112° Southeast 510 945 11,278  Level Indianapolis Center
Mon 09:05:26 38.5667 -85.0339 112° Southeast 511 946 11,278  Level Indianapolis Center
Mon 09:06:28 38.5136 -84.8650 112° Southeast 513 950 11,278  Level Indianapolis Center
Mon 09:07:30 38.4583 -84.6978 113° Southeast 512 948 11,278  Level Indianapolis Center
Mon 09:08:32 38.3964 -84.5014 112° Southeast 511 946 11,278  Level Indianapolis Center
Mon 09:09:34 38.3444 -84.3358 112° Southeast 504 933 11,278  Level Indianapolis Center
Mon 09:10:36 38.2933 -84.1725 112° Southeast 499 924 11,278  Level Indianapolis Center
Mon 09:11:38 38.2389 -84.0139 114° Southeast 491 909 11,278  Level Indianapolis Center
Mon 09:12:40 38.1853 -83.8547 113° Southeast 489 906 11,278  Level Indianapolis Center
Mon 09:13:42 38.1325 -83.6961 113° Southeast 486 900 11,278  Level Indianapolis Center
Mon 09:14:44 38.0694 -83.5083 113° Southeast 489 906 11,278  Level Indianapolis Center
Mon 09:15:46 38.0172 -83.3525 113° Southeast 480 888 11,278  Level Indianapolis Center
Mon 09:16:48 37.9650 -83.1953 113° Southeast 481 892 11,278  Level Indianapolis Center
Mon 09:17:50 37.9114 -83.0386 113° Southeast 481 892 11,278  Level Indianapolis Center
Mon 09:18:52 37.8592 -82.8833 113° Southeast 479 887 11,278  Level Indianapolis Center
Mon 09:19:54 37.8061 -82.7300 114° Southeast 476 882 11,278  Level Indianapolis Center
Mon 09:20:56 37.7444 -82.5503 113° Southeast 475 880 11,278  Level Indianapolis Center
Mon 09:21:58 37.6892 -82.3933 114° Southeast 485 898 11,278  Level Indianapolis Center
Mon 09:23:00 37.6425 -82.2381 111° Southeast 473 875 11,278  Level Indianapolis Center
Mon 09:24:02 37.6239 -82.0747 98° East 467 864 11,278  Level Indianapolis Center
Mon 09:25:04 37.6031 -81.9086 99° East 475 880 11,278 -15 Level Indianapolis Center
Mon 09:26:06 37.5808 -81.7433 100° East 476 882 11,247 -428 Descending Indianapolis Center
Mon 09:27:08 37.5550 -81.5519 100° East 473 875 10,394 -619 Descending Indianapolis Center
Mon 09:28:10 37.5339 -81.4050 100° East 467 864 9,967 -428 Descending Indianapolis Center
Mon 09:29:12 37.5108 -81.2414 100° East 483 895 9,510 -472 Descending Indianapolis Center
Mon 09:30:14 37.4842 -81.0428 100° East 493 912 8,992 -325 Descending Indianapolis Center
Mon 09:31:16 37.4617 -80.8794 100° East 489 906 8,839 -74 Descending Indianapolis Center
Mon 09:32:18 37.4369 -80.7167 101° East 489 906 8,839 -133 Level Indianapolis Center
Mon 09:33:20 37.4086 -80.5172 100° East 495 917 8,565 -245 Descending Indianapolis Center
Mon 09:33:40 37.4000 -80.4781 105° East 488 904 8,504 -320 Descending Washington Center
Mon 09:34:40 37.3742 -80.2908 100° East 493 912 8,138 -289 Descending Washington Center
Mon 09:35:53 37.3453 -80.1192 102° East 493 912 7,864 -289 Descending Washington Center
Mon 09:36:53 37.2644 -79.9369 119° Southeast 493 912 7,498 -335 Descending Washington Center
Mon 09:37:53 37.1869 -79.8231 130° Southeast 488 904 7,193 -242 Descending Washington Center
Mon 09:38:54 37.1058 -79.6961 129° Southeast 478 885 7,010 -91 Descending Washington Center
Mon 09:39:53 37.0208 -79.5617 128° Southeast 460 851 7,010 -169 Level Washington Center
Mon 09:40:53 36.9414 -79.4353 128° Southeast 460 851 6,675 -393 Descending Washington Center
Mon 09:41:54 36.8661 -79.3122 127° Southeast 460 851 6,218 -423 Descending Washington Center
Mon 09:42:54 36.7883 -79.1917 129° Southeast 460 851 5,822 -403 Descending Washington Center
Mon 09:43:52 36.7186 -79.0847 129° Southeast 455 843 5,425 -424 Descending Washington Center
Mon 09:44:16 36.6806 -79.0314 132° Southeast 428 793 5,243 -539 Descending Washington Center
Mon 09:44:53 36.6231 -78.9978 155° Southeast 413 764 4,877 -463 Descending Washington Center
Mon 09:45:35 36.5483 -78.9789 169° South 351 650 4,633 -420 Descending Washington Center
Mon 09:45:54 36.5278 -78.9728 167° South 365 676 4,450 -753 Descending Washington Center
Mon 09:46:43 36.4489 -78.9539 169° South 341 631 3,780 -722 Descending Washington Center
Mon 09:47:53 36.3464 -78.8878 153° Southeast 353 653 3,018 -557 Descending Washington Center
Mon 09:48:38 36.2956 -78.8469 147° Southeast 295 546 2,713 -390 Descending Washington Center
Mon 09:48:54 36.2772 -78.8281 140° Southeast 325 602 2,621 -450 Descending Washington Center
Mon 09:49:39 36.2303 -78.7900 147° Southeast 281 520 2,256 -457 Descending Washington Center
Mon 09:49:54 36.2181 -78.7792 144° Southeast 296 549 2,164 -445 Descending Washington Center
Mon 09:50:53 36.1400 -78.7325 154° Southeast 286 529 1,707 -584 Descending Washington Center
Mon 09:51:53 36.0697 -78.7039 162° South 281 520 1,006 -549 Descending Washington Center
Mon 09:52:53 35.9992 -78.6933 173° South 248 459 610 -212 Descending Washington Center
Mon 09:53:54 35.9403 -78.7064 190° South 233 431 579 -140 Descending Washington Center
Mon 09:55:17 35.8931 -78.7611 223° Southwest 139 257 274 -220 Descending Washington Center
Mon 09:57:00 35.8776 -78.7875 90° East  Level Estimated
Mon 10:04:00 35.8776 -78.7875 90° East  Level Estimated

Login

Don't have an account? Register now (free) for customized features, flight alerts, and more!